This is the latest recevied weather packets stored in our database for station/object K3BAY-1. If no packets are shown the sender has not sent any weather packets the latest 10 day(s).
| Time | Temp. | Humidity | Pressure | Rain* | Wind** | Luminosity | Snow |
|---|---|---|---|---|---|---|---|
| 1777665855 | 17.78° C | 44% | 1013.6 hPa | 0 mm | - | 572 W/m² | - |
| 1777665552 | 17.78° C | 44% | 1013.6 hPa | 0 mm | - | 572 W/m² | - |
| 1777665249 | 17.78° C | 44% | 1013.6 hPa | 0 mm | - | 572 W/m² | - |
| 1777664944 | 17.78° C | 45% | 1013.6 hPa | 0 mm | - | 578 W/m² | - |
| 1777664641 | 17.78° C | 45% | 1013.6 hPa | 0 mm | - | 576 W/m² | - |
| 1777664336 | 17.78° C | 44% | 1013.9 hPa | 0 mm | - | 558 W/m² | - |
| 1777664035 | 17.78° C | 45% | 1013.9 hPa | 0 mm | - | 610 W/m² | - |
| 1777663732 | 17.78° C | 45% | 1013.9 hPa | 0 mm | - | 610 W/m² | - |
| 1777663429 | 18.33° C | 44% | 1013.9 hPa | 0 mm | - | 548 W/m² | - |
| 1777663126 | 18.33° C | 44% | 1013.9 hPa | 0 mm | - | 548 W/m² | - |
| 1777662824 | 17.78° C | 44% | 1013.9 hPa | 0 mm | - | 662 W/m² | - |
| 1777662520 | 17.78° C | 44% | 1013.9 hPa | 0 mm | - | 662 W/m² | - |
| 1777662216 | 17.78° C | 44% | 1013.9 hPa | 0 mm | - | 657 W/m² | - |
| 1777661911 | 17.78° C | 44% | 1013.9 hPa | 0 mm | - | 657 W/m² | - |
| 1777661356 | 17.22° C | 45% | 1014.2 hPa | 0 mm | - | 696 W/m² | - |
| 1777661052 | 17.22° C | 45% | 1014.2 hPa | 0 mm | - | 696 W/m² | - |
| 1777660747 | 17.22° C | 45% | 1014.6 hPa | 0 mm | - | 698 W/m² | - |
| 1777660445 | 17.22° C | 45% | 1014.6 hPa | 0 mm | - | 698 W/m² | - |
| 1777660141 | 17.22° C | 45% | 1014.6 hPa | 0 mm | - | 729 W/m² | - |
| 1777659838 | 17.78° C | 45% | 1014.6 hPa | 0 mm | - | 752 W/m² | - |
| 1777659535 | 17.78° C | 45% | 1014.6 hPa | 0 mm | - | 752 W/m² | - |
| 1777659232 | 17.22° C | 47% | 1014.9 hPa | 0 mm | - | 750 W/m² | - |
| 1777658929 | 16.67° C | 46% | 1014.9 hPa | 0 mm | - | 736 W/m² | - |
| 1777658625 | 17.78° C | 43% | 1014.6 hPa | 0 mm | - | 703 W/m² | - |
| 1777658323 | 17.78° C | 43% | 1014.6 hPa | 0 mm | - | 703 W/m² | - |
* Rain latest hour (hover to see other rain measurements)
** Current wind speed in m/s (hover to see current wind gust speed)